Skip to main content

NOAA/GLERL Met Station at Muskegon, MI

Previous 3 Hours (2 minute increments)
See also Previous 5 Days (top of hour)
Jump down to Data
Switch to [English][Metric]
Zoom: Click and drag, Pan: shift-click and drag, Unzoom: double-click, Unzoom All






See also 1-day windrose plot


NOAA/GLERL Met Station at Muskegon, MI

Previous 3 Hours (2 minute increments)
See also Previous 5 Days (top of hour only)
Jump up to Graphs
Switch to [English][Metric]
                  Wind  Wind  Wind   Air   Dew   Rel     Sta   PAR
                   Spd   Gst   Dir  Temp    Pt   Hum    Pres uE/m2/
YYYY-MM-DD   EDT   kts   kts   deg     F     F     %   in Hg   sec
2022-05-20 00:50  17.7  18.9   188  63.3  55.7  75.8   28.82     2
2022-05-20 00:48  17.3  18.7   187  63.1  55.6  76.0   28.82     2
2022-05-20 00:46  17.5  19.1   185  63.1  55.6  76.2   28.82     2
2022-05-20 00:44  18.1  19.6   187  63.0  55.5  76.2   28.82     2
2022-05-20 00:42  17.9  19.4   184  63.1  55.6  76.0   28.82     2
2022-05-20 00:40  17.5  19.4   183  63.3  55.5  75.3   28.82     2
2022-05-20 00:38  17.5  19.4   184  63.7  55.7  74.8   28.82     2
2022-05-20 00:36  17.7  19.4   187  63.9  55.7  74.4   28.82     2
2022-05-20 00:34  17.9  19.6   187  64.0  55.7  74.0   28.82     2
2022-05-20 00:32  18.5  20.0   186  64.2  55.7  73.4   28.82     2
2022-05-20 00:30  17.7  19.8   185  64.4  55.7  73.0   28.82     2
2022-05-20 00:28  18.1  20.2   186  64.6  55.7  72.5   28.82     2
2022-05-20 00:26  18.3  21.2   186  64.9  55.8  72.0   28.82     2
2022-05-20 00:24  19.2  21.4   186  65.3  55.9  71.4   28.82     2
2022-05-20 00:22  19.8  21.4   186  65.5  56.0  71.2   28.82     2
2022-05-20 00:20  20.2  21.8   187  65.5  56.0  71.1   28.82     2
2022-05-20 00:18  21.2  23.3   185  65.5  56.0  71.2   28.82     2
2022-05-20 00:16  20.4  23.1   186  65.5  56.0  71.0   28.82     2
2022-05-20 00:14  21.6  23.3   186  65.7  56.0  70.7   28.82     2
2022-05-20 00:12  21.0  22.9   187  65.8  56.1  70.4   28.83     2
2022-05-20 00:10  21.6  23.5   186  65.8  56.0  70.3   28.82     2
2022-05-20 00:08  22.2  23.7   184  66.0  56.1  70.0   28.82     2
2022-05-20 00:06  22.4  24.5   185  66.2  56.1  69.5   28.82     2
2022-05-20 00:04  22.9  24.5   183  66.4  56.1  69.2   28.82     2
2022-05-20 00:02  24.3  26.8   183  66.6  56.2  68.8   28.82     2
2022-05-20 00:00  24.7  26.4   182  66.9  56.3  68.2   28.82     2
2022-05-19 23:58  24.3  25.7   182  67.3  56.4  67.7   28.82     2
2022-05-19 23:56  24.3  26.0   183  67.5  56.4  67.3   28.82     2
2022-05-19 23:54  23.5  24.9   183  67.6  56.5  67.2   28.83     2
2022-05-19 23:52  23.7  25.7   182  67.6  56.6  67.3   28.83     2
2022-05-19 23:50  22.9  24.3   180  67.6  56.6  67.4   28.83     2
2022-05-19 23:48  22.9  23.7   179  67.6  56.5  67.2   28.83     2
2022-05-19 23:46  23.3  24.7   179  67.8  56.6  66.9   28.83     2
2022-05-19 23:44  23.1  25.1   180  68.0  56.7  66.7   28.83     2
2022-05-19 23:42  22.7  24.7   180  68.2  56.7  66.4   28.83     2
2022-05-19 23:40  22.0  23.3   181  68.5  56.9  65.9   28.84     2
2022-05-19 23:38  22.4  24.3   180  68.7  56.9  65.5   28.84     2
2022-05-19 23:36  22.7  24.1   180  69.1  57.1  65.3   28.84     2
2022-05-19 23:34  21.8  24.5   180  69.3  57.2  65.1   28.84     2
2022-05-19 23:32  20.8  22.4   179  69.6  57.4  64.8   28.84     2
2022-05-19 23:30  20.4  21.8   179  69.6  57.4  64.8   28.84     2
2022-05-19 23:28  19.8  22.0   180  70.0  57.6  64.4   28.84     2
2022-05-19 23:26  20.0  22.2   178  70.2  57.8  64.4   28.84     2
2022-05-19 23:24  19.2  21.6   178  70.3  57.9  64.3   28.84     2
2022-05-19 23:22  18.5  22.0   176  70.5  58.0  64.0   28.84     2
2022-05-19 23:20  20.4  22.2   178  70.7  58.3  64.3   28.84     2
2022-05-19 23:18  18.3  22.4   177  70.9  58.4  64.2   28.84     2
2022-05-19 23:16  17.9  21.8   176  71.1  58.5  64.1   28.84     2
2022-05-19 23:14  17.7  21.6   177  71.2  58.8  64.3   28.85     2
2022-05-19 23:12  17.9  20.0   177  71.2  58.9  64.5   28.85     2
2022-05-19 23:10  17.9  22.2   176  71.1  58.7  64.6   28.85     2
2022-05-19 23:08  16.7  19.1   176  71.6  58.9  63.9   28.85     2
2022-05-19 23:06  16.7  20.8   174  71.6  59.0  64.1   28.85     2
2022-05-19 23:04  18.1  21.0   174  71.6  59.2  64.4   28.85     2
2022-05-19 23:02  15.9  20.2   172  71.8  59.4  64.6   28.85     2
2022-05-19 23:00  17.1  20.8   172  71.6  59.4  64.9   28.85     2
2022-05-19 22:58  15.9  18.7   173  71.6  59.5  65.2   28.85     2
2022-05-19 22:56  15.0  17.5   168  71.6  59.6  65.4   28.85     2
2022-05-19 22:54  16.9  20.8   168  71.6  59.6  65.5   28.84     2
2022-05-19 22:52  16.5  23.3   170  71.4  59.7  66.0   28.85     2
2022-05-19 22:50  14.6  21.0   171  71.4  59.9  66.5   28.85     2
2022-05-19 22:48  13.2  16.7   166  71.4  59.9  66.5   28.85     2
2022-05-19 22:46  15.4  19.8   166  71.2  59.8  66.8   28.85     2
2022-05-19 22:44  14.2  18.1   169  71.2  60.0  67.3   28.85     2
2022-05-19 22:42  15.4  18.9   163  71.2  60.1  67.5   28.85     2
2022-05-19 22:40  13.6  17.9   157  71.2  60.1  67.5   28.84     2
2022-05-19 22:38  13.4  19.2   158  71.2  60.3  67.9   28.84     2
2022-05-19 22:36  14.6  19.4   157  70.9  60.3  68.7   28.84     2
2022-05-19 22:34  14.0  17.5   158  70.5  60.3  69.7   28.84     2
2022-05-19 22:32  13.4  18.7   159  70.3  60.5  70.7   28.84     2
2022-05-19 22:30  10.3  14.4   157  70.3  60.7  71.2   28.84     2
2022-05-19 22:28  11.9  17.9   147  70.2  60.6  71.4   28.84     2
2022-05-19 22:26  11.5  17.5   148  70.0  60.8  72.2   28.84     2
2022-05-19 22:24  12.2  18.3   150  70.2  60.9  72.1   28.84     2
2022-05-19 22:22  12.6  20.4   148  70.2  60.8  71.8   28.84     2
2022-05-19 22:20  11.5  17.3   151  70.2  60.9  72.1   28.84     2
2022-05-19 22:18  13.6  23.5   152  69.8  60.8  72.6   28.84     2
2022-05-19 22:16  13.6  17.3   150  69.6  60.8  73.2   28.84     2
2022-05-19 22:14  13.0  17.5   145  69.6  61.0  73.6   28.84     2
2022-05-19 22:12  13.4  20.2   145  69.4  60.9  73.9   28.84     2
2022-05-19 22:10  13.6  17.5   143  69.3  60.9  74.4   28.84     2
2022-05-19 22:08  12.8  20.8   145  69.1  60.8  74.7   28.84     2
2022-05-19 22:06  12.4  17.9   138  69.1  60.9  74.8   28.85     2
2022-05-19 22:04  11.5  15.2   137  69.1  60.9  74.9   28.85     2
2022-05-19 22:02  11.3  14.0   137  69.1  61.0  75.0   28.85     2
2022-05-19 22:00  12.1  15.4   139  68.9  60.9  75.2   28.85     2
2022-05-19 21:58  13.2  15.9   134  68.9  60.9  75.3   28.85     2
2022-05-19 21:56  12.4  14.8   137  68.7  60.8  75.4   28.85     2
2022-05-19 21:54  13.0  15.7   135  68.7  60.9  75.7   28.85     2
2022-05-19 21:52  13.2  15.6   133  68.4  60.7  76.2   28.85     2
2022-05-19 21:50  12.8  15.9   130  68.4  60.8  76.4   28.85     2